Albany, Texas
Current Conditions -  °F | °C
As of 3:35 PM on Tuesday 25 Nov 2014 (Local Time) from KBKD Reporting Station
Haze Haze  
Wind Chill: 60°   Ceiling: Unl
Heat Index: 60°   Visibility: 5mi
Dew Point: 28°   Wind: 8mph
Humidity: 29%   Direction: 250°WSW
Pressure: 30.19"   Gusts: NA
Location:  32.72°N, 99.3°W
Report Text: KBKD 252135Z AUTO 25007KT 5SM HZ CLR 16/M02 A3019 RMK AO2 T01551024
Loading
Personal Weather Stations






























Interactive Weather Map New forecast layout! Learn more

10-Day Weather Forecast

Advertisements
Track Severe Weather on mobile